Sandersdale, Massachusetts
Current Conditions -  °F | °C
As of 2:54 AM on Saturday 01 Nov 2014 (Local Time) from KORH Reporting Station
Overcast Overcast  
Wind Chill: 34°   Ceiling: 6000
Heat Index: 41°   Visibility: 10mi
Dew Point: 32°   Wind: 12mph
Humidity: 70%   Direction: 40°NE
Pressure: 29.91"   Gusts: 21mph
Location:  42.0598°N, 72.0339°W
Report Text: KORH 010654Z AUTO 04010G18KT 10SM BKN060 OVC085 05/00 A2991 RMK AO2 SLP135 T00500000
Loading
Personal Weather Stations






























Interactive Weather Map
Tropical Storm Tracking
New forecast layout! Learn more

10-Day Weather Forecast

Advertisements
Track Severe Weather on mobile